Time,TemperatureF,DewpointF,PressureIn,WindDirection,WindDirectionDegrees,WindSpeedMPH,WindSpeedGustMPH,Humidity,HourlyPrecipIn,Conditions,Clouds,dailyrainin,SoftwareType,DateUTC
2016-02-05 00:00:00,20.3,16.2,30.13,NE,56,3.0,13.0,84,0.00,,OVC,0.00,WeatherDisplay:10.37,2016-02-05 05:00:00,
2016-02-05 00:30:00,19.7,15.4,30.13,SSE,150,2.0,16.0,83,0.00,,OVC,0.00,WeatherDisplay:10.37,2016-02-05 05:30:00,
2016-02-05 01:00:00,19.0,15.0,30.14,ESE,114,7.0,16.0,84,0.00,,OVC,0.00,WeatherDisplay:10.37,2016-02-05 06:00:00,
2016-02-05 01:30:00,18.4,14.4,30.14,WNW,295,6.0,17.0,84,0.00,,OVC,0.00,WeatherDisplay:10.37,2016-02-05 06:30:00,
2016-02-05 02:00:00,17.7,13.7,30.15,SSW,211,6.0,20.0,84,0.00,,OVC,0.00,WeatherDisplay:10.37,2016-02-05 07:00:00,
2016-02-05 02:30:00,17.0,13.0,30.14,South,184,7.0,17.0,84,0.00,,OVC,0.00,WeatherDisplay:10.37,2016-02-05 07:30:00,
2016-02-05 03:00:00,16.4,12.7,30.16,SW,223,7.0,17.0,85,0.00,,OVC,0.00,WeatherDisplay:10.37,2016-02-05 08:00:00,
2016-02-05 03:30:00,15.7,12.0,30.17,SW,222,6.0,24.0,85,0.00,,OVC,0.00,WeatherDisplay:10.37,2016-02-05 08:30:00,
2016-02-05 04:00:00,15.0,11.8,30.18,SW,235,7.0,22.0,87,0.00,,OVC,0.00,WeatherDisplay:10.37,2016-02-05 09:00:00,
2016-02-05 04:30:00,14.3,11.1,30.20,SW,217,10.0,23.0,87,0.00,,OVC,0.00,WeatherDisplay:10.37,2016-02-05 09:30:00,
2016-02-05 05:00:00,13.7,10.8,30.22,SSW,213,8.0,25.0,88,0.00,,OVC,0.00,WeatherDisplay:10.37,2016-02-05 10:00:00,
2016-02-05 05:30:00,13.0,10.1,30.23,SSE,162,9.0,20.0,88,0.00,CLR,OVC,0.00,WeatherDisplay:10.37,2016-02-05 10:30:00,
2016-02-05 06:30:00,12.2,9.3,30.27,South,171,5.0,17.0,88,0.00,CLR,OVC,0.00,WeatherDisplay:10.37,2016-02-05 11:30:00,
2016-02-05 07:00:00,11.7,8.8,30.27,SE,133,5.0,15.0,88,0.00,CLR,OVC,0.00,WeatherDisplay:10.37,2016-02-05 12:00:00,
2016-02-05 07:30:00,11.6,8.7,30.30,SSE,156,6.0,23.0,88,0.00,CLR,OVC,0.00,WeatherDisplay:10.37,2016-02-05 12:30:00,
2016-02-05 08:00:00,12.5,9.6,30.34,SW,221,5.0,20.0,88,0.00,CLR,OVC,0.00,WeatherDisplay:10.37,2016-02-05 13:00:00,
2016-02-05 08:30:00,13.2,10.4,30.35,SSW,198,3.0,20.0,88,0.00,CLR,OVC,0.00,WeatherDisplay:10.37,2016-02-05 13:30:00,
2016-02-05 09:00:00,14.4,11.5,30.38,WSW,237,5.0,21.0,88,0.00,CLR,OVC,0.00,WeatherDisplay:10.37,2016-02-05 14:00:00,
2016-02-05 09:30:00,15.1,11.9,30.37,North,1,3.0,20.0,87,0.00,CLR,OVC,0.00,WeatherDisplay:10.37,2016-02-05 14:30:00,
2016-02-05 10:00:00,16.8,13.1,30.40,NW,312,5.0,18.0,85,0.00,CLR,OVC,0.00,WeatherDisplay:10.37,2016-02-05 15:00:00,
2016-02-05 10:30:00,19.2,14.4,30.40,NNW,347,5.0,15.0,81,0.00,CLR,OVC,0.00,WeatherDisplay:10.37,2016-02-05 15:30:00,
2016-02-05 11:00:00,22.0,15.3,30.43,North,8,3.0,21.0,75,0.00,CLR,OVC,0.00,WeatherDisplay:10.37,2016-02-05 16:00:00,
2016-02-05 11:30:00,23.0,14.4,30.44,WNW,296,5.0,16.0,69,0.00,CLR,OVC,0.00,WeatherDisplay:10.37,2016-02-05 16:30:00,
2016-02-05 12:00:00,25.0,16.6,30.43,North,353,3.0,20.0,70,0.00,CLR,OVC,0.00,WeatherDisplay:10.37,2016-02-05 17:00:00,
2016-02-05 12:30:00,24.7,14.3,30.41,WNW,287,7.0,16.0,64,0.00,CLR,OVC,0.00,WeatherDisplay:10.37,2016-02-05 17:30:00,
2016-02-05 13:00:00,25.5,15.0,30.42,NW,319,5.0,17.0,64,0.00,CLR,OVC,0.00,WeatherDisplay:10.37,2016-02-05 18:00:00,
2016-02-05 14:00:00,26.7,15.0,30.44,WNW,289,2.0,13.0,61,0.00,CLR,OVC,0.00,WeatherDisplay:10.37,2016-02-05 19:00:00,
2016-02-05 14:30:00,26.8,13.2,30.44,West,280,5.0,12.0,56,0.00,CLR,OVC,0.00,WeatherDisplay:10.37,2016-02-05 19:30:00,
2016-02-05 15:00:00,25.9,12.7,30.44,West,270,5.0,12.0,57,0.00,CLR,OVC,0.00,WeatherDisplay:10.37,2016-02-05 20:00:00,
2016-02-05 15:30:00,25.1,12.8,30.46,West,264,3.0,13.0,59,0.00,CLR,OVC,0.00,WeatherDisplay:10.37,2016-02-05 20:30:00,
2016-02-05 16:30:00,25.1,11.6,30.47,WSW,256,3.0,8.0,56,0.00,CLR,OVC,0.00,WeatherDisplay:10.37,2016-02-05 21:30:00,
2016-02-05 17:00:00,24.5,11.8,30.47,NNW,330,2.0,12.0,58,0.00,CLR,OVC,0.00,WeatherDisplay:10.37,2016-02-05 22:00:00,
2016-02-05 17:30:00,23.7,11.1,30.48,SW,227,1.0,9.0,58,0.00,CLR,OVC,0.00,WeatherDisplay:10.37,2016-02-05 22:30:00,
2016-02-05 18:00:00,22.6,10.4,30.48,WSW,247,2.0,7.0,59,0.00,,OVC,0.00,WeatherDisplay:10.37,2016-02-05 23:00:00,
2016-02-05 18:30:00,21.5,9.7,30.49,NNW,348,1.0,9.0,60,0.00,CLR,OVC,0.00,WeatherDisplay:10.37,2016-02-05 23:30:00,
2016-02-05 19:00:00,20.7,10.4,30.50,ENE,58,1.0,10.0,64,0.00,CLR,OVC,0.00,WeatherDisplay:10.37,2016-02-06 00:00:00,
2016-02-05 19:30:00,20.0,10.8,30.49,SW,216,2.0,8.0,67,0.00,,OVC,0.00,WeatherDisplay:10.37,2016-02-06 00:30:00,
2016-02-05 20:00:00,19.6,10.7,30.50,South,184,1.0,4.0,68,0.00,,OVC,0.00,WeatherDisplay:10.37,2016-02-06 01:00:00,
2016-02-05 20:30:00,19.3,10.8,30.50,NNE,29,0.0,8.0,69,0.00,,OVC,0.00,WeatherDisplay:10.37,2016-02-06 01:30:00,
2016-02-05 21:00:00,19.1,10.3,30.49,WNW,295,2.0,9.0,68,0.00,,OVC,0.00,WeatherDisplay:10.37,2016-02-06 02:00:00,
2016-02-05 21:30:00,18.9,9.1,30.50,NW,314,0.0,5.0,65,0.00,,OVC,0.00,WeatherDisplay:10.37,2016-02-06 02:30:00,
2016-02-05 22:30:00,18.6,8.7,30.51,NW,312,0.0,7.0,65,0.00,,OVC,0.00,WeatherDisplay:10.37,2016-02-06 03:30:00,
2016-02-05 23:00:00,18.2,9.4,30.52,NW,312,0.0,3.0,68,0.00,,OVC,0.00,WeatherDisplay:10.37,2016-02-06 04:00:00,